Time;durP1;ratioP1;P1;durP2;ratioP2;P2;SDS_P1;SDS_P2;PMS_P1;PMS_P2;Temp;Humidity;BMP_temperature;BMP_pressure;BME280_temperature;BME280_humidity;BME280_pressure;Samples;Min_cycle;Max_cycle;Signal;HPM_P1;HPM_P2
2022/01/20 00:06:59;;;;;;;4.75;3.10;;;8.00;60.20;;;6.37;65.00;100784.91;8265952;28;20121;-84
2022/01/20 00:30:03;;;;;;;3.65;1.83;;;8.00;59.50;;;6.29;64.40;100770.50;8281515;28;20030;-85
2022/01/20 00:34:20;;;;;;;2.25;1.55;;;7.90;59.40;;;6.33;65.04;100779.88;8252174;28;20056;-85
2022/01/20 00:38:42;;;;;;;3.83;1.50;;;7.90;59.30;;;6.23;64.81;100768.13;8251961;28;20116;-85
2022/01/20 00:43:04;;;;;;;2.50;1.42;;;7.80;59.20;;;6.27;64.48;100774.91;8249680;28;20130;-84
2022/01/20 00:47:26;;;;;;;3.65;2.25;;;7.90;59.20;;;6.26;64.66;100783.56;8261545;28;20113;-84
2022/01/20 00:51:47;;;;;;;4.45;2.33;;;7.80;59.10;;;6.28;64.51;100799.94;8265200;28;20037;-84
2022/01/20 00:56:13;;;;;;;7.38;1.75;;;7.90;59.10;;;6.20;64.56;100787.25;8262326;28;20110;-84
2022/01/20 01:00:36;;;;;;;;;;;7.90;59.10;;;6.24;65.03;100791.44;8277669;28;20122;-85
2022/01/20 01:04:57;;;;;;;6.32;1.48;;;7.90;59.20;;;6.20;65.09;100797.63;8279212;28;19920;-84
2022/01/20 01:09:19;;;;;;;3.65;1.60;;;7.80;59.20;;;6.16;64.76;100788.25;8254956;28;20120;-84
2022/01/20 01:13:41;;;;;;;6.72;1.60;;;7.90;59.40;;;6.14;64.60;100788.31;8256326;28;20121;-85
2022/01/20 01:22:47;;;;;;;4.10;1.80;;;7.80;59.40;;;6.13;64.66;100776.25;8256761;28;20109;-84
2022/01/20 01:27:11;;;;;;;3.97;2.05;;;7.90;59.30;;;6.21;64.59;100794.09;8243252;28;20137;-84
2022/01/20 01:31:39;;;;;;;3.50;1.40;;;7.90;59.20;;;6.23;64.36;100807.03;8264068;28;20038;-84
2022/01/20 01:36:03;;;;;;;6.07;2.20;;;7.90;59.10;;;6.16;64.84;100790.84;8243574;28;20109;-84
2022/01/20 01:40:29;;;;;;;3.22;1.27;;;7.90;58.80;;;6.13;64.34;100793.53;8245154;28;20121;-84
2022/01/20 01:44:52;;;;;;;3.45;1.92;;;7.90;58.60;;;6.11;64.77;100788.41;8223891;28;20113;-84
2022/01/20 01:49:16;;;;;;;5.45;1.52;;;7.80;58.60;;;6.09;64.61;100798.00;8234221;28;20077;-84
2022/01/20 01:53:39;;;;;;;7.55;1.58;;;7.90;58.60;;;6.13;64.63;100807.38;8244484;28;20033;-84
2022/01/20 01:58:01;;;;;;;9.45;2.13;;;7.90;58.60;;;6.19;64.71;100817.50;8241633;28;20109;-84
2022/01/20 02:02:23;;;;;;;6.07;2.10;;;7.80;58.50;;;6.08;64.66;100811.88;8236254;28;20478;-84
2022/01/20 02:20:47;;;;;;;5.40;1.60;;;7.50;58.10;;;6.07;64.62;100817.09;8252882;28;20558;-83
2022/01/20 02:25:37;;;;;;;6.53;1.40;;;7.70;58.00;;;5.93;64.12;100810.63;8251241;28;20121;-84
2022/01/20 02:29:59;;;;;;;9.13;1.90;;;7.70;57.90;;;5.89;64.54;100806.44;8260057;28;20036;-83
2022/01/20 02:34:22;;;;;;;5.90;1.75;;;7.70;58.00;;;5.69;64.30;100786.38;8258612;28;20109;-83
2022/01/20 02:38:54;;;;;;;9.90;2.15;;;7.60;57.90;;;5.89;64.08;100819.41;8257108;28;20047;-83
2022/01/20 02:47:57;;;;;;;5.30;1.55;;;7.60;57.60;;;5.87;64.13;100817.75;8237835;28;20109;-83
2022/01/20 02:52:22;;;;;;;5.32;1.83;;;7.50;57.40;;;5.75;63.72;100812.09;8261916;28;20029;-84
2022/01/20 02:56:44;;;;;;;3.63;1.15;;;7.50;57.50;;;5.69;63.85;100791.56;8212261;28;20041;-83
2022/01/20 03:01:06;;;;;;;4.22;1.50;;;7.40;57.40;;;5.63;64.21;100776.22;8253364;28;20128;-84
2022/01/20 03:05:31;;;;;;;7.47;1.75;;;7.40;57.40;;;5.60;64.13;100771.16;8248670;28;20125;-83
2022/01/20 03:09:59;;;;;;;5.90;1.30;;;7.40;57.30;;;5.67;63.99;100795.09;8251938;28;20046;-83
2022/01/20 03:14:21;;;;;;;1.52;1.02;;;7.30;57.20;;;5.51;63.81;100772.31;8254487;28;20117;-83
2022/01/20 03:18:43;;;;;;;7.15;2.40;;;7.30;57.30;;;5.45;63.50;100745.78;8258564;28;20108;-83
2022/01/20 03:23:04;;;;;;;4.20;1.67;;;7.60;57.30;;;5.55;63.61;100767.88;8262793;28;20586;-83
2022/01/20 03:27:26;;;;;;;2.63;0.98;;;7.20;57.20;;;5.44;63.84;100751.84;8260893;28;20041;-83
2022/01/20 03:31:48;;;;;;;6.30;1.45;;;7.20;57.20;;;5.19;63.54;100741.47;8270707;28;20109;-83
2022/01/20 03:36:09;;;;;;;6.45;1.50;;;7.10;57.20;;;5.34;64.03;100761.66;8223951;28;20121;-83
2022/01/20 03:40:50;;;;;;;3.60;1.50;;;7.10;57.20;;;5.29;63.77;100754.06;8256583;28;20042;-83
2022/01/20 03:45:12;;;;;;;4.70;1.48;;;7.00;57.30;;;5.30;63.58;100763.50;8249168;28;20463;-83
2022/01/20 03:49:39;;;;;;;4.70;1.30;;;7.10;57.40;;;5.24;63.63;100740.44;8259423;28;20491;-83
2022/01/20 03:54:03;;;;;;;4.60;1.42;;;7.00;57.40;;;5.27;63.88;100734.31;8236182;28;20113;-83
2022/01/20 03:58:57;;;;;;;2.75;1.42;;;7.00;57.40;;;5.32;63.91;100735.84;8263079;28;20112;-83
2022/01/20 04:03:21;;;;;;;5.97;1.08;;;7.00;57.50;;;5.35;63.89;100723.66;8247323;28;20555;-84
2022/01/20 04:07:47;;;;;;;5.47;1.25;;;7.00;57.50;;;5.34;63.54;100712.47;8250171;28;20109;-83
2022/01/20 04:12:09;;;;;;;3.63;1.52;;;6.90;57.50;;;5.32;63.92;100698.75;8265732;28;20595;-83
2022/01/20 04:16:38;;;;;;;6.68;1.45;;;6.90;57.50;;;5.16;63.97;100684.59;8233963;28;20113;-83
2022/01/20 04:21:00;;;;;;;5.03;1.65;;;6.90;57.50;;;5.29;63.64;100704.88;8230027;28;20117;-83
2022/01/20 04:25:21;;;;;;;5.82;1.63;;;7.00;57.50;;;5.29;63.92;100714.34;8234624;28;20038;-83
2022/01/20 04:29:43;;;;;;;6.72;1.88;;;7.00;57.60;;;5.29;63.84;100719.53;8270024;28;20061;-84
2022/01/20 04:34:07;;;;;;;6.10;1.75;;;7.00;57.60;;;5.21;63.97;100686.16;8258108;28;20121;-84
2022/01/20 04:38:29;;;;;;;6.22;1.60;;;6.90;57.30;;;5.26;63.62;100697.19;8246216;28;20430;-84
2022/01/20 04:42:52;;;;;;;9.88;2.15;;;6.90;57.50;;;5.23;63.46;100733.53;8245047;28;20125;-83
2022/01/20 04:47:24;;;;;;;2.95;1.23;;;6.90;57.80;;;4.90;63.57;100750.16;8235751;28;20117;-85
2022/01/20 05:01:07;;;;;;;3.60;1.08;;;6.50;57.60;;;4.43;63.67;100785.16;8274758;28;20042;-83
2022/01/20 05:05:29;;;;;;;1.75;0.80;;;6.40;57.70;;;4.35;63.69;100796.63;8234373;28;20405;-85
2022/01/20 05:09:59;;;;;;;1.70;0.88;;;6.00;57.60;;;4.22;64.17;100783.19;8264300;28;20030;-83
2022/01/20 05:14:23;;;;;;;4.88;1.20;;;6.10;57.70;;;4.03;63.72;100776.84;8240515;28;20117;-83
2022/01/20 05:18:45;;;;;;;3.00;1.20;;;5.90;57.80;;;4.12;63.68;100799.84;8249959;28;20116;-83
2022/01/20 05:23:06;;;;;;;1.15;0.68;;;5.80;57.90;;;4.01;64.12;100776.88;8248047;28;20049;-84
2022/01/20 05:27:29;;;;;;;3.55;0.90;;;5.80;58.00;;;3.86;63.72;100762.66;8234132;28;20044;-84
2022/01/20 05:31:52;;;;;;;5.05;1.52;;;5.70;58.00;;;3.97;64.03;100777.88;8225946;28;20689;-84
2022/01/20 05:36:14;;;;;;;8.45;1.38;;;5.70;58.00;;;3.96;64.05;100769.25;8249371;28;20491;-86
2022/01/20 05:40:36;;;;;;;5.45;2.33;;;5.70;58.00;;;3.85;64.01;100763.53;8242717;28;20034;-85
2022/01/20 05:44:58;;;;;;;4.43;1.10;;;5.70;58.00;;;3.92;63.88;100759.91;8246164;28;20471;-84
2022/01/20 05:49:23;;;;;;;2.88;1.00;;;5.50;58.00;;;3.77;63.65;100739.63;8231898;28;20120;-87
2022/01/20 05:53:54;;;;;;;2.03;0.98;;;5.60;58.10;;;3.68;63.64;100730.41;8254825;28;20125;-88
2022/01/20 05:58:16;;;;;;;5.55;1.48;;;5.60;58.00;;;3.85;64.13;100786.78;8245522;28;20120;-88
2022/01/20 06:07:21;;;;;;;4.28;1.60;;;5.50;58.00;;;3.91;63.99;100802.09;8245918;28;20038;-84
2022/01/20 06:11:43;;;;;;;5.15;1.20;;;5.60;58.10;;;3.88;63.85;100807.34;8239751;28;20038;-84
2022/01/20 06:16:09;;;;;;;2.87;1.10;;;5.60;58.00;;;3.74;63.88;100752.63;8253664;28;20034;-85
2022/01/20 06:20:32;;;;;;;2.65;0.95;;;5.60;57.90;;;3.87;64.02;100764.34;8240007;28;20357;-85
2022/01/20 06:24:54;;;;;;;2.45;0.95;;;5.50;57.70;;;3.88;63.78;100750.53;8239350;28;20068;-84
2022/01/20 06:29:16;;;;;;;3.35;1.20;;;5.60;57.80;;;3.98;63.79;100788.13;8250035;28;20125;-84
2022/01/20 06:33:38;;;;;;;4.78;1.20;;;5.60;57.50;;;3.97;63.80;100821.78;8247932;28;20129;-85
2022/01/20 06:38:01;;;;;;;4.75;1.85;;;5.60;57.30;;;3.79;63.61;100815.34;8241365;28;20029;-86
2022/01/20 06:42:23;;;;;;;4.60;1.33;;;5.70;57.00;;;3.85;63.82;100833.25;8234879;28;20038;-85
2022/01/20 06:46:45;;;;;;;5.03;1.40;;;5.60;56.90;;;3.74;63.82;100854.19;8227497;28;20578;-84
2022/01/20 06:51:14;;;;;;;3.25;1.25;;;5.50;56.20;;;3.74;63.50;100874.00;8251705;28;20388;-84
2022/01/20 06:55:36;;;;;;;5.15;1.60;;;5.50;56.50;;;3.65;63.65;100874.25;8249784;28;20114;-85
2022/01/20 06:59:58;;;;;;;1.48;0.82;;;5.50;56.00;;;3.68;63.46;100912.91;8221696;28;20045;-84
2022/01/20 07:04:21;;;;;;;4.38;1.15;;;5.50;55.80;;;3.39;63.32;100860.22;8223946;28;20034;-87
2022/01/20 07:08:42;;;;;;;5.63;1.20;;;5.50;55.80;;;3.67;63.26;100922.41;8229948;28;20129;-84
2022/01/20 07:13:09;;;;;;;2.72;1.15;;;5.40;55.20;;;3.59;63.44;100934.59;8277542;28;20038;-83
2022/01/20 07:17:31;;;;;;;8.82;1.38;;;5.40;54.80;;;3.55;63.14;100966.56;8250879;28;20129;-83
2022/01/20 07:21:52;;;;;;;3.13;1.05;;;5.40;54.30;;;3.24;62.82;100948.28;8245634;28;20037;-83
2022/01/20 07:26:17;;;;;;;1.52;0.65;;;5.40;55.80;;;3.27;62.95;100997.28;8259226;28;20125;-85
2022/01/20 07:30:47;;;;;;;2.90;1.05;;;5.20;56.10;;;3.23;63.03;101011.13;8230720;28;20127;-83
2022/01/20 07:35:09;;;;;;;7.18;1.20;;;5.10;56.30;;;2.97;63.10;100997.03;8264700;28;20121;-82
2022/01/20 07:39:31;;;;;;;1.83;0.90;;;4.90;56.30;;;2.98;63.12;101010.75;8248778;28;20109;-83
2022/01/20 07:43:53;;;;;;;0.65;0.50;;;4.90;56.50;;;2.87;63.09;101016.13;8237285;28;20105;-83
2022/01/20 07:48:34;;;;;;;1.75;0.98;;;4.80;56.60;;;2.91;63.18;101024.66;8239891;28;20034;-82
2022/01/20 07:53:07;;;;;;;1.92;0.93;;;4.70;56.60;;;2.90;63.39;101035.84;8258005;28;20044;-84
2022/01/20 07:57:29;;;;;;;2.45;0.75;;;4.50;56.60;;;2.58;63.18;100976.25;8275861;28;20113;-87
2022/01/20 08:01:51;;;;;;;3.05;1.10;;;4.60;56.70;;;2.68;63.25;101001.88;8247759;28;20085;-83
2022/01/20 08:06:14;;;;;;;1.50;0.70;;;4.60;56.70;;;2.83;63.14;101040.25;8237960;28;20528;-85
2022/01/20 08:10:39;;;;;;;1.25;0.80;;;4.60;56.70;;;2.89;63.12;101040.16;8245675;28;20125;-85
2022/01/20 08:15:02;;;;;;;2.92;1.20;;;4.60;56.70;;;2.87;63.38;101057.38;8219590;28;20034;-87
2022/01/20 08:19:42;;;;;;;4.25;1.30;;;4.60;56.60;;;2.90;63.08;101072.81;8277176;28;20117;-84
2022/01/20 08:24:05;;;;;;;14.40;1.73;;;4.60;56.30;;;2.91;63.10;101069.34;8239456;28;20326;-80
2022/01/20 08:28:26;;;;;;;6.22;1.30;;;4.70;56.30;;;2.94;62.91;101066.69;8263428;28;20109;-80
2022/01/20 08:32:49;;;;;;;2.95;1.10;;;4.70;56.00;;;3.04;62.96;101090.59;8257534;28;20044;-84
2022/01/20 08:37:30;;;;;;;2.47;1.13;;;4.60;55.50;;;3.05;62.99;101085.44;8267508;28;20465;-84
2022/01/20 08:41:52;;;;;;;1.88;1.00;;;4.80;55.60;;;2.93;63.09;101054.69;8248213;28;20049;-86
2022/01/20 08:46:16;;;;;;;5.47;1.65;;;4.80;55.50;;;3.02;63.00;101057.09;8255223;28;20124;-84
2022/01/20 08:50:40;;;;;;;3.60;1.55;;;4.90;55.70;;;3.12;62.85;101046.59;8248554;28;20031;-87
2022/01/20 08:55:03;;;;;;;4.43;1.63;;;5.00;55.70;;;3.28;62.80;101086.72;8255295;28;20117;-88
2022/01/20 08:59:42;;;;;;;9.85;2.47;;;5.00;55.40;;;3.23;62.85;101073.06;8266461;28;20121;-87
2022/01/20 09:04:05;;;;;;;5.07;1.80;;;5.10;55.10;;;3.25;62.80;101063.56;8247346;28;20125;-84
2022/01/20 09:08:28;;;;;;;3.00;1.60;;;5.10;55.30;;;3.25;62.97;101063.56;8252685;28;20037;-84
2022/01/20 09:17:37;;;;;;;7.13;1.77;;;5.20;54.70;;;3.35;62.66;101085.72;8249561;28;20398;-90
2022/01/20 09:21:59;;;;;;;7.78;1.70;;;5.20;54.80;;;3.52;62.52;101099.16;8274668;28;20056;-91
2022/01/20 09:26:21;;;;;;;3.55;1.30;;;5.20;55.00;;;3.41;62.75;101085.59;8261244;28;20072;-85
2022/01/20 09:31:31;;;;;;;3.67;1.65;;;5.30;54.90;;;3.00;62.66;101015.00;8217454;28;20041;-86
2022/01/20 09:36:14;;;;;;;2.42;1.35;;;5.40;54.90;;;3.46;62.97;101091.53;8224664;28;20046;-87
2022/01/20 09:40:38;;;;;;;12.45;2.45;;;5.50;54.80;;;3.74;62.76;101130.53;8245367;28;20489;-87
2022/01/20 09:45:02;;;;;;;3.95;1.10;;;5.50;53.90;;;3.73;62.68;101135.75;8237878;28;20052;-85
2022/01/20 09:49:24;;;;;;;7.28;1.58;;;5.60;54.90;;;3.85;62.10;101148.41;8249298;28;20046;-85
2022/01/20 09:53:47;;;;;;;4.30;1.40;;;5.50;55.00;;;3.75;62.38;101137.44;8236675;28;20041;-85
2022/01/20 09:58:34;;;;;;;3.40;1.48;;;5.60;55.00;;;3.68;62.33;101114.34;8244671;28;20323;-85
2022/01/20 10:03:09;;;;;;;4.18;1.42;;;5.60;55.10;;;3.73;62.55;101128.84;8246294;28;20030;-85
2022/01/20 10:07:34;;;;;;;2.92;1.33;;;5.60;55.00;;;3.85;62.41;101150.16;8241870;28;20038;-85
2022/01/20 10:12:01;;;;;;;7.93;1.80;;;5.60;55.00;;;3.75;62.40;101118.47;8248013;28;20082;-86
2022/01/20 10:16:40;;;;;;;5.65;1.77;;;5.60;55.20;;;3.86;62.71;101139.78;8245652;28;20046;-85
2022/01/20 10:21:09;;;;;;;6.93;2.40;;;5.70;54.70;;;3.81;62.32;101125.25;8238616;28;20046;-85
2022/01/20 10:25:44;;;;;;;9.23;1.70;;;5.60;54.90;;;3.94;62.49;101153.41;8254180;28;20041;-85
2022/01/20 10:30:16;;;;;;;8.55;2.13;;;5.70;54.80;;;3.90;62.35;101137.97;8231665;28;20056;-84
2022/01/20 10:34:38;;;;;;;2.50;1.35;;;5.70;54.70;;;3.93;62.16;101140.50;8233167;28;20040;-84
2022/01/20 10:39:08;;;;;;;9.57;1.52;;;5.70;54.70;;;3.98;62.23;101129.19;8235991;28;20056;-85
2022/01/20 10:43:33;;;;;;;6.35;1.88;;;5.80;54.90;;;4.09;61.97;101135.84;8237025;28;20046;-85
2022/01/20 10:48:01;;;;;;;6.03;1.63;;;5.80;54.70;;;3.98;62.38;101110.25;8225680;28;20034;-85
2022/01/20 10:52:36;;;;;;;5.80;2.07;;;5.90;54.50;;;4.07;62.22;101124.69;8211084;28;20752;-84
2022/01/20 10:56:58;;;;;;;5.97;1.63;;;5.90;54.40;;;4.20;62.19;101129.56;8215805;28;20048;-84
2022/01/20 11:01:20;;;;;;;7.60;2.00;;;6.10;54.20;;;4.13;62.23;101120.25;8253900;28;20673;-83
2022/01/20 11:05:48;;;;;;;5.15;1.50;;;6.10;54.50;;;4.27;61.94;101129.44;8245743;28;20423;-84
2022/01/20 11:10:17;;;;;;;4.30;1.58;;;6.10;54.30;;;4.33;62.02;101140.47;8256602;28;20050;-85
2022/01/20 11:14:45;;;;;;;6.63;1.40;;;6.10;54.00;;;4.40;61.87;101156.69;8240882;28;20038;-86
2022/01/20 11:19:18;;;;;;;5.43;1.50;;;6.20;54.40;;;4.46;61.79;101135.03;8244359;28;20125;-86
2022/01/20 11:23:42;;;;;;;7.07;1.30;;;6.20;54.30;;;4.51;61.97;101122.81;8223233;28;20138;-85
2022/01/20 11:28:25;;;;;;;8.13;1.50;;;6.30;54.40;;;4.54;61.77;101125.38;8231262;28;20049;-84
2022/01/20 11:33:11;;;;;;;8.18;2.30;;;6.30;54.30;;;4.52;61.89;101122.81;8215177;28;20060;-85
2022/01/20 11:37:42;;;;;;;7.03;1.80;;;6.30;53.90;;;4.45;61.60;101108.31;8227594;28;20044;-84
2022/01/20 11:42:04;;;;;;;5.25;1.50;;;6.30;53.60;;;4.62;61.59;101141.56;8252480;28;20056;-85
2022/01/20 11:46:38;;;;;;;3.90;1.48;;;6.40;54.00;;;4.63;61.41;101136.31;8250800;28;20045;-85
2022/01/20 11:51:06;;;;;;;5.97;2.63;;;6.40;54.00;;;4.66;61.80;101130.22;8251914;28;20068;-86
2022/01/20 11:55:28;;;;;;;5.13;1.67;;;6.40;53.80;;;4.65;61.62;101131.13;8238167;28;20042;-84
2022/01/20 11:59:56;;;;;;;3.10;1.25;;;6.40;53.70;;;4.67;61.25;101137.09;8235402;28;20075;-83
2022/01/20 12:04:40;;;;;;;3.17;1.30;;;6.40;53.50;;;4.68;61.44;101146.56;8252574;28;20044;-83
2022/01/20 12:09:12;;;;;;;5.05;1.75;;;6.40;53.60;;;4.72;61.35;101137.00;8240870;28;20045;-86
2022/01/20 12:13:49;;;;;;;9.45;1.67;;;6.40;53.70;;;4.72;61.25;101139.56;8229855;28;20396;-88
2022/01/20 12:18:12;;;;;;;3.05;1.42;;;6.40;53.60;;;4.50;61.22;101079.75;8244370;28;20034;-83
2022/01/20 12:22:43;;;;;;;7.63;1.95;;;6.50;53.80;;;4.52;61.47;101080.59;8231901;28;20042;-89
2022/01/20 12:27:19;;;;;;;5.45;1.52;;;6.40;53.10;;;4.78;61.35;101132.53;8222444;28;20042;-81
2022/01/20 12:31:51;;;;;;;;;;;6.50;53.30;;;4.61;61.11;101098.44;8244752;28;20034;-88
2022/01/20 12:36:16;;;;;;;9.30;1.67;;;6.50;53.80;;;4.80;61.48;101138.50;8242873;28;19917;-83
2022/01/20 12:40:38;;;;;;;7.45;2.10;;;6.60;53.70;;;4.81;61.55;101129.88;8242655;28;20030;-87
2022/01/20 12:45:55;;;;;;;6.68;1.70;;;6.60;53.70;;;4.77;61.42;101112.69;8236207;28;20048;-81
2022/01/20 12:49:58;;;;;;;10.18;2.67;;;6.60;53.90;;;4.75;61.49;101117.09;8222105;28;20044;-83
2022/01/20 12:54:32;;;;;;;4.80;1.73;;;6.60;53.80;;;4.81;61.28;101101.41;8231706;28;20052;-83
2022/01/20 12:58:54;;;;;;;2.65;1.65;;;6.60;52.80;;;4.89;60.92;101114.16;8232353;28;20050;-82
2022/01/20 13:03:16;;;;;;;4.82;1.73;;;6.70;53.40;;;4.90;61.11;101115.84;8246555;28;20052;-82
2022/01/20 13:07:38;;;;;;;3.35;1.60;;;6.70;52.90;;;4.88;60.72;101108.09;8251058;28;20046;-83
2022/01/20 13:12:01;;;;;;;4.45;1.27;;;6.70;52.70;;;4.96;61.03;101112.25;8211445;28;20049;-82
2022/01/20 13:16:24;;;;;;;9.18;2.22;;;6.70;52.90;;;4.83;60.89;101086.69;8250990;28;20550;-83
2022/01/20 13:20:59;;;;;;;5.38;1.45;;;6.70;52.00;;;4.79;60.58;101116.09;8256510;28;20034;-83
2022/01/20 13:25:28;;;;;;;7.57;2.22;;;6.60;52.30;;;4.81;60.71;101111.75;8241480;28;20038;-82
2022/01/20 13:29:51;;;;;;;5.45;1.40;;;6.60;52.20;;;4.85;60.56;101130.63;8273532;28;20060;-82
2022/01/20 13:34:18;;;;;;;7.78;1.90;;;6.60;52.80;;;4.78;60.59;101122.19;8253030;28;20049;-83
2022/01/20 13:38:47;;;;;;;2.75;1.40;;;6.60;52.90;;;4.86;60.36;101133.19;8264896;28;20034;-82
2022/01/20 13:47:59;;;;;;;5.50;1.63;;;6.60;52.90;;;4.87;60.68;101116.75;8265841;28;20086;-82
2022/01/20 13:52:22;;;;;;;6.90;2.00;;;6.60;52.70;;;4.79;60.78;101108.34;8265666;28;20822;-83
2022/01/20 13:56:52;;;;;;;5.93;1.35;;;6.60;52.60;;;4.75;60.19;101088.63;8261111;28;20038;-83
2022/01/20 14:01:14;;;;;;;3.50;1.42;;;6.60;52.60;;;4.83;60.28;101122.03;8233593;28;20072;-82
2022/01/20 14:05:36;;;;;;;2.33;1.73;;;6.50;52.60;;;4.81;60.24;101108.31;8250357;28;20044;-82
2022/01/20 14:09:57;;;;;;;3.53;1.13;;;6.40;53.00;;;4.67;60.10;101082.78;8211698;28;20043;-82
2022/01/20 14:14:19;;;;;;;2.83;1.13;;;6.50;53.10;;;4.52;60.24;101073.66;8219782;28;20038;-82
2022/01/20 14:18:46;;;;;;;9.48;1.55;;;6.50;53.00;;;4.76;59.84;101123.09;8259762;28;20455;-81
2022/01/20 14:23:07;;;;;;;4.93;1.50;;;6.40;53.00;;;4.68;60.18;101114.69;8278617;28;20041;-80
2022/01/20 14:27:29;;;;;;;4.28;1.80;;;6.40;52.70;;;4.61;60.07;101116.56;8245014;28;20041;-80
2022/01/20 14:31:51;;;;;;;6.88;1.60;;;6.40;53.00;;;4.65;60.16;101136.31;8253645;28;20038;-81
2022/01/20 14:36:13;;;;;;;3.08;1.10;;;6.40;52.40;;;4.52;60.33;101119.38;8256687;28;20517;-84
2022/01/20 14:40:35;;;;;;;3.45;1.23;;;6.30;52.70;;;4.59;60.09;101136.44;8240563;28;20042;-82
2022/01/20 14:44:56;;;;;;;2.78;1.60;;;6.40;53.10;;;4.66;60.27;101145.75;8253399;28;20053;-81
2022/01/20 14:49:18;;;;;;;3.05;1.23;;;6.40;53.30;;;4.65;60.33;101146.66;8238430;28;20037;-81
2022/01/20 14:53:40;;;;;;;1.58;1.08;;;6.40;53.30;;;4.44;60.33;101102.28;8256372;28;20034;-81
2022/01/20 14:58:02;;;;;;;3.67;1.20;;;6.40;53.40;;;4.55;60.32;101124.47;8241646;28;20102;-81
2022/01/20 15:02:24;;;;;;;3.13;1.42;;;6.30;53.20;;;4.62;59.98;101163.09;8237781;28;20038;-82
2022/01/20 15:06:45;;;;;;;0.95;0.77;;;6.30;53.10;;;4.54;60.05;101169.34;8242423;28;20038;-82
2022/01/20 15:11:07;;;;;;;2.78;1.10;;;6.20;52.90;;;4.31;60.09;101134.50;8241740;28;20052;-80
2022/01/20 15:15:32;;;;;;;1.67;0.90;;;6.20;53.10;;;4.33;59.96;101156.00;8220595;28;20034;-81
2022/01/20 15:19:54;;;;;;;1.08;0.93;;;6.10;53.40;;;4.08;60.16;101128.97;8237539;28;20041;-81
2022/01/20 15:24:16;;;;;;;1.15;0.73;;;6.10;53.60;;;4.13;60.44;101158.16;8238955;28;20678;-81
2022/01/20 15:28:42;;;;;;;1.33;0.85;;;6.00;53.60;;;4.15;60.28;101169.31;8228212;28;20052;-82
2022/01/20 15:33:04;;;;;;;4.03;1.77;;;5.80;53.60;;;4.09;60.32;101177.22;8268306;28;20468;-82
2022/01/20 15:37:25;;;;;;;3.08;1.98;;;5.80;53.70;;;4.12;60.27;101184.88;8232306;28;20041;-81
2022/01/20 15:41:49;;;;;;;3.30;2.33;;;5.80;53.80;;;3.95;60.25;101162.84;8262241;28;20034;-82
2022/01/20 15:46:11;;;;;;;3.20;1.38;;;5.70;53.80;;;3.99;60.43;101181.69;8241659;28;20038;-81
2022/01/20 15:50:33;;;;;;;7.35;2.63;;;5.70;53.80;;;3.98;60.13;101206.69;8254989;28;20033;-81
2022/01/20 15:54:54;;;;;;;5.22;2.08;;;5.70;53.60;;;3.99;60.21;101228.22;8245875;28;20042;-81
2022/01/20 15:59:16;;;;;;;4.75;1.55;;;5.60;53.60;;;3.83;60.14;101217.31;8250659;28;20040;-81
2022/01/20 16:03:38;;;;;;;0.90;0.90;;;5.60;53.90;;;3.80;60.53;101234.63;8252468;28;20067;-82
2022/01/20 16:08:00;;;;;;;1.90;1.42;;;5.60;54.10;;;3.70;60.23;101226.19;8251661;28;20050;-81
2022/01/20 16:12:21;;;;;;;1.35;1.00;;;5.50;54.30;;;3.79;60.21;101244.09;8257828;28;20052;-81
2022/01/20 16:16:44;;;;;;;4.57;2.00;;;5.50;54.40;;;3.77;60.47;101238.13;8240880;28;20036;-81
2022/01/20 16:21:07;;;;;;;0.95;0.63;;;5.40;54.60;;;3.64;60.56;101227.16;8217337;28;20049;-82
2022/01/20 16:25:29;;;;;;;2.60;1.08;;;5.40;54.70;;;3.74;60.27;101245.94;8237478;28;20033;-82
2022/01/20 16:29:52;;;;;;;3.42;1.60;;;5.20;54.70;;;3.60;60.29;101253.09;8243787;28;20038;-81
2022/01/20 16:34:13;;;;;;;4.18;1.60;;;5.40;55.00;;;3.55;60.76;101277.25;8273934;28;20041;-83
2022/01/20 16:38:35;;;;;;;2.80;1.95;;;5.30;55.30;;;3.28;60.73;101259.63;8249931;28;20049;-83
2022/01/20 16:42:57;;;;;;;4.28;2.15;;;5.10;55.90;;;3.30;60.52;101268.22;8248701;28;20042;-83
2022/01/20 16:47:20;;;;;;;2.88;1.80;;;5.10;55.70;;;3.23;60.96;101276.91;8243935;28;20044;-83
2022/01/20 16:51:42;;;;;;;2.05;1.20;;;5.10;55.70;;;3.17;60.90;101259.81;8234208;28;20048;-84
2022/01/20 16:56:04;;;;;;;7.97;3.88;;;4.90;55.80;;;3.10;60.92;101255.63;8241982;28;20053;-83
2022/01/20 17:00:25;;;;;;;7.72;3.40;;;4.90;55.80;;;3.03;60.87;101261.75;8256422;28;20042;-83
2022/01/20 17:04:50;;;;;;;3.95;2.40;;;4.70;55.70;;;3.07;60.87;101269.41;8244894;28;20053;-83
2022/01/20 17:09:12;;;;;;;3.80;2.15;;;4.80;55.90;;;3.02;60.88;101273.78;8246507;28;20044;-85
2022/01/20 17:13:33;;;;;;;3.05;2.10;;;4.80;56.00;;;3.12;61.06;101297.72;8244175;28;20499;-82
2022/01/20 17:17:55;;;;;;;2.55;2.03;;;4.70;55.90;;;2.99;61.10;101284.16;8268262;28;20026;-82
2022/01/20 17:22:17;;;;;;;2.33;1.80;;;4.80;55.90;;;2.91;61.18;101288.56;8239204;28;20052;-82
2022/01/20 17:26:42;;;;;;;2.80;1.48;;;4.70;55.90;;;2.87;61.01;101292.09;8254867;28;20521;-82
2022/01/20 17:31:03;;;;;;;2.65;1.33;;;4.70;55.80;;;2.64;61.02;101287.22;8236016;28;20038;-83
2022/01/20 17:35:26;;;;;;;4.53;1.60;;;4.60;55.80;;;2.81;61.31;101311.09;8241123;28;20052;-83
2022/01/20 17:39:48;;;;;;;4.40;2.10;;;4.60;55.80;;;2.77;60.91;101324.88;8229893;28;20049;-83
2022/01/20 17:44:13;;;;;;;3.72;2.10;;;4.50;55.80;;;2.78;61.00;101336.03;8253863;28;20034;-83
2022/01/20 17:48:34;;;;;;;5.55;1.90;;;4.50;55.80;;;2.83;61.29;101347.16;8230016;28;20042;-82
2022/01/20 17:52:56;;;;;;;3.45;1.50;;;4.50;55.80;;;2.78;60.95;101341.19;8241736;28;20042;-82
2022/01/20 17:57:18;;;;;;;2.47;1.45;;;4.50;55.80;;;2.78;61.30;101362.72;8243864;28;20750;-83
2022/01/20 18:01:40;;;;;;;4.18;1.45;;;4.60;55.80;;;2.54;61.17;101327.78;8255496;28;20042;-82
2022/01/20 18:06:02;;;;;;;4.32;1.40;;;4.50;55.70;;;2.81;61.23;101380.72;8245457;28;20698;-82
2022/01/20 18:10:24;;;;;;;3.10;1.25;;;4.50;55.60;;;2.70;61.11;101379.13;8270427;28;20049;-82
2022/01/20 18:14:45;;;;;;;2.13;1.15;;;4.40;55.60;;;2.72;61.35;101393.72;8242088;28;20695;-82
2022/01/20 18:19:07;;;;;;;4.72;1.92;;;4.50;55.50;;;2.69;61.09;101387.75;8257269;28;20725;-82
2022/01/20 18:23:29;;;;;;;4.00;1.63;;;4.80;55.70;;;2.86;61.33;101442.53;8253502;28;20046;-82
2022/01/20 18:27:51;;;;;;;4.63;1.42;;;4.60;55.60;;;2.80;61.73;101422.84;8267281;28;20038;-83
2022/01/20 18:32:14;;;;;;;2.90;1.33;;;4.60;55.80;;;2.72;61.36;101428.97;8252107;28;20038;-83
2022/01/20 18:36:35;;;;;;;1.70;1.60;;;4.60;56.00;;;2.70;61.06;101428.13;8248577;28;20390;-84
2022/01/20 18:40:58;;;;;;;2.67;1.10;;;4.50;56.20;;;2.66;61.75;101446.19;8249905;28;20044;-84
2022/01/20 18:45:21;;;;;;;2.13;1.17;;;4.40;56.20;;;2.56;61.60;101451.47;8265962;28;20042;-83
2022/01/20 18:49:42;;;;;;;2.85;1.75;;;4.40;56.40;;;2.52;61.42;101445.50;8252788;28;20037;-85
2022/01/20 18:54:05;;;;;;;2.80;1.40;;;4.40;56.40;;;2.59;61.64;101477.22;8247377;28;20111;-83
2022/01/20 18:58:26;;;;;;;1.85;1.00;;;4.30;56.50;;;2.55;61.28;101483.28;8256975;28;20044;-84
2022/01/20 19:02:48;;;;;;;2.15;1.70;;;4.30;56.50;;;2.55;61.96;101501.34;8250228;28;20044;-84
2022/01/20 19:07:10;;;;;;;6.88;1.30;;;4.30;56.50;;;2.51;61.78;101497.94;8218699;28;20045;-84
2022/01/20 19:11:32;;;;;;;1.38;1.13;;;4.30;56.50;;;2.36;61.74;101474.88;8251224;28;20046;-84
2022/01/20 19:15:54;;;;;;;1.77;1.60;;;4.30;56.50;;;2.44;61.63;101507.44;8251293;28;20038;-85
2022/01/20 19:20:17;;;;;;;5.25;1.45;;;4.20;56.50;;;2.44;61.57;101519.47;8238636;28;20037;-83
2022/01/20 19:24:39;;;;;;;1.70;1.30;;;4.20;56.50;;;2.40;61.43;101513.50;8268098;28;20047;-84
2022/01/20 19:29:01;;;;;;;2.60;1.00;;;4.00;56.50;;;2.29;61.75;101501.56;8252526;28;20046;-85
2022/01/20 19:33:23;;;;;;;1.70;1.27;;;4.20;56.60;;;2.34;61.64;101517.84;8253989;28;20042;-85
2022/01/20 19:37:45;;;;;;;3.92;1.10;;;4.10;56.50;;;2.14;61.75;101493.09;8249695;28;20030;-85
2022/01/20 19:42:07;;;;;;;1.20;0.80;;;4.10;56.60;;;2.41;61.61;101533.25;8234757;28;20407;-85
2022/01/20 19:46:29;;;;;;;1.63;0.90;;;4.10;56.60;;;2.32;61.79;101528.19;8251057;28;20041;-85
2022/01/20 19:50:51;;;;;;;2.97;1.15;;;4.10;56.60;;;2.35;61.59;101543.63;8262432;28;20527;-85
2022/01/20 19:55:17;;;;;;;3.67;1.02;;;4.10;56.50;;;2.33;61.88;101544.50;8234720;28;20049;-85